createdAt,value
2017-09-01T00:00:48.832Z,13.20
2017-09-01T00:03:16.508Z,13.10
2017-09-01T00:05:44.060Z,13.10
2017-09-01T00:08:11.521Z,13.10
2017-09-01T00:10:39.353Z,13.10
2017-09-01T00:13:06.813Z,13.10
2017-09-01T00:15:34.263Z,13.10
2017-09-01T00:18:01.904Z,13.00
2017-09-01T00:20:29.364Z,13.10
2017-09-01T00:22:56.863Z,13.00
2017-09-01T00:25:24.436Z,13.00
2017-09-01T00:27:51.947Z,13.00
2017-09-01T00:30:19.420Z,13.00
2017-09-01T00:32:46.940Z,13.00
2017-09-01T00:35:14.480Z,13.00
2017-09-01T00:37:42.125Z,12.90
2017-09-01T00:40:09.663Z,12.90
2017-09-01T00:42:37.129Z,12.90
2017-09-01T00:45:04.652Z,12.90
2017-09-01T00:47:32.111Z,12.90
2017-09-01T00:49:59.599Z,12.80
2017-09-01T00:52:27.074Z,12.80
2017-09-01T00:54:54.544Z,12.70
2017-09-01T00:57:22.003Z,12.70
2017-09-01T00:59:49.475Z,12.70
2017-09-01T01:02:17.130Z,12.70
2017-09-01T01:04:44.690Z,12.60
2017-09-01T01:07:12.920Z,12.50
2017-09-01T01:09:40.492Z,12.50
2017-09-01T01:12:08.044Z,12.50
2017-09-01T01:14:35.591Z,12.50
2017-09-01T01:17:03.071Z,12.50
2017-09-01T01:19:30.663Z,12.40
2017-09-01T01:21:58.221Z,12.40
2017-09-01T01:24:25.687Z,12.40
2017-09-01T01:26:53.348Z,12.30
2017-09-01T01:29:20.840Z,12.30
2017-09-01T01:31:48.385Z,12.30
2017-09-01T01:34:15.875Z,12.20
2017-09-01T01:36:43.368Z,12.20
2017-09-01T01:39:11.644Z,12.10
2017-09-01T01:41:39.175Z,12.10
2017-09-01T01:44:06.723Z,12.10
2017-09-01T01:46:34.266Z,12.10
2017-09-01T01:49:01.904Z,12.10
2017-09-01T01:51:29.460Z,12.10
2017-09-01T01:53:56.997Z,12.10
2017-09-01T01:56:24.747Z,12.10
2017-09-01T01:58:52.215Z,12.00
2017-09-01T02:01:19.680Z,12.00
2017-09-01T02:03:47.238Z,11.90
2017-09-01T02:06:14.816Z,12.00
2017-09-01T02:08:42.281Z,12.00
2017-09-01T02:11:10.268Z,11.90
2017-09-01T02:13:37.756Z,12.00
2017-09-01T02:16:05.295Z,11.90
2017-09-01T02:18:32.835Z,11.90
2017-09-01T02:21:01.072Z,11.90
2017-09-01T02:23:28.644Z,11.80
2017-09-01T02:25:56.277Z,11.90
2017-09-01T02:28:23.836Z,11.80
2017-09-01T02:30:51.305Z,11.80
2017-09-01T02:33:19.851Z,11.80
2017-09-01T02:35:47.379Z,11.80
2017-09-01T02:38:15.620Z,11.80
2017-09-01T02:40:44.256Z,11.80
2017-09-01T02:43:11.737Z,11.80
2017-09-01T02:45:39.195Z,11.70
2017-09-01T02:48:06.727Z,11.70
2017-09-01T02:50:34.205Z,11.80
2017-09-01T02:53:01.662Z,11.80
2017-09-01T02:55:29.151Z,11.80
2017-09-01T02:57:56.708Z,11.80
2017-09-01T03:00:24.251Z,11.90
2017-09-01T03:02:51.808Z,11.90
2017-09-01T03:05:19.341Z,12.00
2017-09-01T03:07:46.880Z,11.90
2017-09-01T03:10:15.170Z,11.90
2017-09-01T03:12:42.712Z,11.90
2017-09-01T03:15:10.232Z,11.90
2017-09-01T03:17:37.780Z,11.90
2017-09-01T03:20:05.316Z,11.90
2017-09-01T03:22:32.790Z,11.80
2017-09-01T03:25:00.416Z,11.70
2017-09-01T03:27:27.944Z,11.70
2017-09-01T03:29:56.172Z,11.60
2017-09-01T03:32:23.654Z,11.60
2017-09-01T03:34:51.196Z,11.50
2017-09-01T03:37:18.935Z,11.50
2017-09-01T03:39:46.399Z,11.50
2017-09-01T03:42:13.869Z,11.40
2017-09-01T03:44:41.576Z,11.40
2017-09-01T03:47:09.040Z,11.40
2017-09-01T03:49:36.559Z,11.40
2017-09-01T03:52:04.306Z,11.40
2017-09-01T03:54:32.568Z,11.30
2017-09-01T03:57:00.108Z,11.30
2017-09-01T03:59:27.651Z,11.30
2017-09-01T04:01:55.197Z,11.20
2017-09-01T04:04:22.731Z,11.20
2017-09-01T04:06:50.488Z,11.20
2017-09-01T04:09:17.948Z,11.20
2017-09-01T04:11:45.415Z,11.20
2017-09-01T04:14:12.919Z,11.20
2017-09-01T04:16:41.151Z,11.10
2017-09-01T04:19:08.616Z,11.10
2017-09-01T04:21:36.161Z,11.10
2017-09-01T04:24:03.708Z,11.10
2017-09-01T04:26:31.217Z,11.10
2017-09-01T04:28:58.807Z,11.10
2017-09-01T04:31:26.334Z,11.10
2017-09-01T04:33:53.804Z,11.00
2017-09-01T04:36:21.473Z,11.00
2017-09-01T04:38:48.960Z,11.00
2017-09-01T04:41:17.319Z,11.00
2017-09-01T04:43:44.871Z,11.00
2017-09-01T04:46:12.336Z,11.00
2017-09-01T04:48:39.807Z,11.00
2017-09-01T04:51:07.350Z,10.90
2017-09-01T04:53:35.035Z,10.90
2017-09-01T04:56:02.495Z,11.00
2017-09-01T04:58:30.023Z,11.00
2017-09-01T05:00:57.772Z,11.00
2017-09-01T05:03:25.319Z,11.00
2017-09-01T05:05:52.788Z,11.10
2017-09-01T05:08:20.400Z,11.10
2017-09-01T05:10:47.868Z,11.20
2017-09-01T05:13:15.391Z,11.20
2017-09-01T05:15:43.032Z,11.20
2017-09-01T05:18:10.501Z,11.30
2017-09-01T05:20:38.648Z,11.40
2017-09-01T05:23:06.275Z,11.40
2017-09-01T05:25:33.748Z,11.50
2017-09-01T05:28:01.269Z,11.50
2017-09-01T05:30:29.016Z,11.60
2017-09-01T05:32:56.562Z,11.60
2017-09-01T05:35:24.028Z,11.70
2017-09-01T05:37:51.517Z,11.70
2017-09-01T05:40:18.981Z,11.80
2017-09-01T05:42:46.439Z,11.80
2017-09-01T05:45:13.959Z,11.80
2017-09-01T05:47:41.423Z,11.90
2017-09-01T05:50:08.953Z,12.00
2017-09-01T05:52:36.592Z,12.20
2017-09-01T05:55:04.059Z,12.40
2017-09-01T05:57:31.519Z,12.60
2017-09-01T05:59:58.996Z,12.80
2017-09-01T06:02:26.465Z,12.90
2017-09-01T06:04:53.945Z,13.10
2017-09-01T06:07:21.452Z,13.20
2017-09-01T06:09:48.911Z,13.20
2017-09-01T06:12:16.536Z,13.30
2017-09-01T06:14:44.055Z,13.40
2017-09-01T06:17:11.513Z,13.40
2017-09-01T06:19:38.984Z,13.50
2017-09-01T06:22:06.459Z,13.60
2017-09-01T06:24:33.948Z,13.70
2017-09-01T06:27:01.489Z,13.80
2017-09-01T06:29:29.028Z,13.90
2017-09-01T06:31:56.540Z,13.90
2017-09-01T06:34:23.992Z,13.80
2017-09-01T06:36:51.447Z,13.90
2017-09-01T06:39:18.932Z,13.90
2017-09-01T06:41:46.386Z,14.00
2017-09-01T06:44:13.848Z,14.00
2017-09-01T06:46:41.343Z,14.10
2017-09-01T06:49:08.872Z,14.30
2017-09-01T06:51:36.408Z,14.40
2017-09-01T06:54:03.908Z,14.50
2017-09-01T06:56:31.402Z,14.70
2017-09-01T06:58:58.865Z,14.80
2017-09-01T07:01:26.583Z,15.00
2017-09-01T07:03:54.124Z,15.20
2017-09-01T07:06:21.589Z,15.30
2017-09-01T07:08:49.107Z,15.40
2017-09-01T07:11:16.657Z,15.50
2017-09-01T07:13:44.124Z,15.50
2017-09-01T07:16:11.645Z,15.70
2017-09-01T07:18:39.192Z,15.70
2017-09-01T07:21:06.651Z,15.70
2017-09-01T07:23:34.176Z,15.60
2017-09-01T07:26:01.720Z,15.60
2017-09-01T07:28:29.255Z,15.60
2017-09-01T07:30:56.808Z,15.60
2017-09-01T07:33:24.347Z,15.80
2017-09-01T07:35:51.888Z,15.90
2017-09-01T07:38:19.428Z,16.00
2017-09-01T07:40:46.896Z,16.20
2017-09-01T07:43:14.379Z,16.30
2017-09-01T07:45:41.860Z,16.40
2017-09-01T07:48:10.123Z,16.70
2017-09-01T07:50:37.622Z,16.60
2017-09-01T07:53:05.108Z,16.70
2017-09-01T07:55:33.333Z,17.00
2017-09-01T07:58:00.904Z,16.90
2017-09-01T08:00:28.445Z,17.20
2017-09-01T08:02:55.987Z,17.30
2017-09-01T08:05:23.480Z,17.40
2017-09-01T08:07:50.981Z,17.50
2017-09-01T08:10:18.519Z,17.40
2017-09-01T08:12:46.044Z,17.40
2017-09-01T08:15:13.612Z,17.30
2017-09-01T08:17:41.072Z,17.30
2017-09-01T08:20:08.588Z,17.30
2017-09-01T08:22:36.140Z,17.30
2017-09-01T08:25:03.601Z,17.20
2017-09-01T08:27:31.248Z,17.20
2017-09-01T08:29:58.764Z,17.30
2017-09-01T08:32:26.303Z,17.30
2017-09-01T08:34:54.053Z,17.50
2017-09-01T08:37:21.516Z,17.70
2017-09-01T08:39:49.039Z,17.90
2017-09-01T08:42:16.545Z,18.10
2017-09-01T08:44:44.008Z,18.20
2017-09-01T08:47:11.572Z,18.30
2017-09-01T08:49:39.116Z,18.40
2017-09-01T08:52:06.652Z,18.60
2017-09-01T08:54:34.112Z,18.80
2017-09-01T08:57:01.648Z,19.10
2017-09-01T08:59:29.189Z,19.20
2017-09-01T09:01:56.734Z,19.30
2017-09-01T09:04:24.472Z,19.40
2017-09-01T09:06:52.068Z,19.60
2017-09-01T09:09:19.564Z,19.80
2017-09-01T09:11:47.048Z,20.00
2017-09-01T09:14:14.503Z,20.30
2017-09-01T09:16:41.996Z,20.60
2017-09-01T09:19:09.742Z,20.80
2017-09-01T09:21:37.285Z,20.90
2017-09-01T09:24:04.828Z,21.10
2017-09-01T09:26:32.312Z,21.30
2017-09-01T09:28:59.764Z,21.50
2017-09-01T09:31:27.253Z,21.70
2017-09-01T09:33:54.791Z,21.80
2017-09-01T09:36:22.255Z,21.90
2017-09-01T09:38:49.879Z,21.90
2017-09-01T09:41:17.429Z,21.90
2017-09-01T09:43:44.887Z,21.90
2017-09-01T09:46:12.411Z,22.00
2017-09-01T09:48:39.876Z,22.10
2017-09-01T09:51:07.343Z,21.90
2017-09-01T09:53:34.927Z,21.90
2017-09-01T09:56:02.480Z,21.80
2017-09-01T09:58:30.027Z,21.60
2017-09-01T10:00:57.535Z,21.40
2017-09-01T10:03:24.995Z,21.30
2017-09-01T10:05:52.455Z,21.10
2017-09-01T10:08:19.945Z,20.90
2017-09-01T10:10:47.452Z,20.60
2017-09-01T10:13:15.002Z,20.40
2017-09-01T10:15:43.439Z,19.90
2017-09-01T10:18:10.901Z,19.90
2017-09-01T10:20:38.422Z,19.70
2017-09-01T10:23:05.924Z,19.50
2017-09-01T10:25:33.388Z,19.30
2017-09-01T10:28:00.847Z,19.20
2017-09-01T10:30:28.396Z,18.90
2017-09-01T10:32:55.892Z,18.80
2017-09-01T10:35:23.349Z,18.60
2017-09-01T10:37:50.819Z,18.50
2017-09-01T10:40:18.331Z,18.40
2017-09-01T10:42:45.916Z,18.30
2017-09-01T10:45:13.432Z,18.30
2017-09-01T10:50:53.269Z,18.20
2017-09-01T10:53:32.827Z,18.20
2017-09-01T10:56:12.416Z,18.20
2017-09-01T10:58:39.920Z,18.30
2017-09-01T11:01:07.404Z,18.40
2017-09-01T11:03:34.939Z,18.50
2017-09-01T11:06:02.480Z,18.60
2017-09-01T11:08:30.029Z,18.70
2017-09-01T11:10:57.572Z,18.80
2017-09-01T11:13:25.031Z,18.90
2017-09-01T11:15:52.564Z,19.00
2017-09-01T11:18:20.036Z,19.20
2017-09-01T11:20:53.291Z,19.30
2017-09-01T11:23:26.505Z,19.30
2017-09-01T11:25:53.992Z,19.50
2017-09-01T11:28:21.448Z,19.80
2017-09-01T11:30:49.179Z,20.10
2017-09-01T11:33:16.639Z,20.40
2017-09-01T11:35:44.172Z,20.70
2017-09-01T11:38:11.720Z,20.90
2017-09-01T11:40:39.256Z,21.10
2017-09-01T11:43:06.808Z,21.20
2017-09-01T11:45:34.299Z,21.30
2017-09-01T11:48:01.780Z,21.40
2017-09-01T11:50:29.236Z,21.50
2017-09-01T11:52:56.743Z,21.60
2017-09-01T11:55:24.260Z,22.10
2017-09-01T11:57:51.796Z,22.40
2017-09-01T12:00:19.436Z,23.40
2017-09-01T12:02:46.992Z,25.30
2017-09-01T12:05:14.441Z,27.10
2017-09-01T12:07:41.967Z,28.40
2017-09-01T12:10:09.507Z,29.60
2017-09-01T12:12:37.058Z,31.10
2017-09-01T12:15:04.552Z,32.40
2017-09-01T12:17:32.142Z,33.40
2017-09-01T12:19:59.688Z,33.80
2017-09-01T12:22:27.339Z,34.10
2017-09-01T12:24:54.880Z,34.80
2017-09-01T12:27:23.101Z,35.20
2017-09-01T12:29:50.775Z,35.20
2017-09-01T12:32:18.323Z,35.00
2017-09-01T12:34:45.781Z,34.90
2017-09-01T12:37:13.495Z,33.80
2017-09-01T12:39:41.060Z,32.50
2017-09-01T12:42:08.600Z,31.40
2017-09-01T12:44:36.080Z,30.60
2017-09-01T12:47:03.524Z,29.60
2017-09-01T12:49:30.978Z,28.70
2017-09-01T12:51:58.466Z,27.70
2017-09-01T12:54:26.947Z,26.80
2017-09-01T12:56:54.491Z,26.20
2017-09-01T12:59:21.943Z,25.70
2017-09-01T13:01:49.473Z,25.40
2017-09-01T13:04:17.019Z,25.10
2017-09-01T13:06:44.485Z,24.90
2017-09-01T13:09:11.999Z,24.60
2017-09-01T13:11:39.465Z,24.20
2017-09-01T13:14:06.924Z,24.10
2017-09-01T13:16:34.400Z,23.90
2017-09-01T13:19:01.847Z,23.70
2017-09-01T13:21:29.308Z,23.60
2017-09-01T13:23:56.851Z,23.50
2017-09-01T13:26:24.312Z,23.30
2017-09-01T13:28:52.651Z,23.20
2017-09-01T13:31:20.203Z,23.20
2017-09-01T13:33:47.668Z,22.90
2017-09-01T13:36:15.116Z,22.80
2017-09-01T13:38:42.610Z,22.80
2017-09-01T13:41:10.169Z,22.90
2017-09-01T13:43:37.711Z,23.10
2017-09-01T13:46:05.260Z,23.20
2017-09-01T13:48:32.796Z,23.40
2017-09-01T13:51:00.341Z,23.70
2017-09-01T13:53:27.843Z,23.90
2017-09-01T13:55:55.296Z,24.20
2017-09-01T13:58:22.834Z,24.50
2017-09-01T14:00:50.388Z,24.80
2017-09-01T14:03:17.932Z,24.60
2017-09-01T14:05:45.387Z,23.80
2017-09-01T14:08:13.013Z,23.10
2017-09-01T14:10:40.472Z,22.50
2017-09-01T14:13:07.927Z,22.00
2017-09-01T14:15:35.424Z,21.90
2017-09-01T14:18:02.884Z,22.50
2017-09-01T14:20:30.424Z,23.10
2017-09-01T14:22:57.962Z,23.70
2017-09-01T14:25:25.429Z,24.30
2017-09-01T14:27:52.956Z,23.80
2017-09-01T14:30:20.502Z,23.70
2017-09-01T14:32:47.956Z,23.70
2017-09-01T14:35:15.484Z,24.70
2017-09-01T14:37:43.096Z,25.90
2017-09-01T14:40:10.567Z,26.80
2017-09-01T14:42:38.113Z,27.10
2017-09-01T14:45:05.839Z,26.90
2017-09-01T14:47:33.296Z,26.90
2017-09-01T14:50:00.747Z,25.50
2017-09-01T14:52:28.483Z,24.30
2017-09-01T14:54:56.017Z,23.30
2017-09-01T14:57:23.474Z,22.40
2017-09-01T14:59:51.000Z,21.90
2017-09-01T15:02:18.539Z,21.50
2017-09-01T15:04:46.023Z,21.30
2017-09-01T15:07:13.528Z,21.10
2017-09-01T15:09:41.071Z,20.90
2017-09-01T15:12:08.594Z,20.80
2017-09-01T15:14:36.055Z,20.80
2017-09-01T15:17:03.596Z,20.50
2017-09-01T15:19:31.141Z,20.50
2017-09-01T15:21:58.688Z,20.30
2017-09-01T15:24:26.144Z,20.30
2017-09-01T15:26:53.638Z,20.00
2017-09-01T15:29:21.384Z,19.90
2017-09-01T15:31:48.863Z,19.70
2017-09-01T15:34:16.401Z,19.50
2017-09-01T15:36:43.961Z,19.60
2017-09-01T15:39:11.416Z,19.60
2017-09-01T15:41:39.044Z,19.80
2017-09-01T15:44:06.491Z,20.00
2017-09-01T15:46:33.955Z,20.20
2017-09-01T15:49:01.440Z,20.20
2017-09-01T15:51:28.960Z,20.30
2017-09-01T15:53:56.417Z,20.30
2017-09-01T15:56:24.057Z,20.40
2017-09-01T15:58:51.599Z,20.80
2017-09-01T16:01:19.060Z,21.10
2017-09-01T16:03:46.593Z,21.30
2017-09-01T16:06:14.144Z,21.10
2017-09-01T16:08:41.675Z,20.70
2017-09-01T16:11:09.324Z,20.80
2017-09-01T16:13:36.788Z,20.90
2017-09-01T16:16:04.248Z,20.90
2017-09-01T16:18:31.753Z,21.00
2017-09-01T16:20:59.309Z,21.00
2017-09-01T16:23:26.764Z,21.00
2017-09-01T16:25:54.303Z,20.90
2017-09-01T16:28:21.839Z,20.70
2017-09-01T16:30:49.291Z,20.60
2017-09-01T16:33:16.792Z,20.40
2017-09-01T16:35:44.243Z,20.00
2017-09-01T16:38:11.708Z,19.70
2017-09-01T16:40:40.408Z,19.60
2017-09-01T16:43:07.929Z,19.50
2017-09-01T16:45:35.463Z,19.30
2017-09-01T16:48:03.015Z,19.30
2017-09-01T16:50:31.274Z,19.20
2017-09-01T16:52:59.632Z,19.10
2017-09-01T16:55:27.179Z,19.10
2017-09-01T16:57:55.430Z,19.00
2017-09-01T17:00:23.171Z,19.00
2017-09-01T17:02:50.723Z,19.00
2017-09-01T17:05:18.276Z,18.90
2017-09-01T17:07:45.813Z,18.90
2017-09-01T17:10:13.352Z,18.80
2017-09-01T17:12:40.895Z,18.80
2017-09-01T17:15:08.415Z,18.70
2017-09-01T17:17:35.904Z,18.80
2017-09-01T17:20:03.433Z,18.80
2017-09-01T17:22:31.253Z,18.70
2017-09-01T17:24:58.753Z,18.70
2017-09-01T17:27:26.207Z,18.60
2017-09-01T17:29:53.820Z,18.60
2017-09-01T17:32:21.279Z,18.60
2017-09-01T17:34:48.732Z,18.50
2017-09-01T17:37:16.478Z,18.40
2017-09-01T17:39:43.936Z,18.40
2017-09-01T17:42:11.392Z,18.30
2017-09-01T17:44:38.868Z,18.30
2017-09-01T17:47:09.926Z,18.20
2017-09-01T17:49:37.371Z,18.20
2017-09-01T17:52:04.909Z,18.10
2017-09-01T17:54:32.464Z,18.10
2017-09-01T17:57:07.548Z,18.10
2017-09-01T17:59:35.420Z,18.00
2017-09-01T18:02:03.000Z,18.00
2017-09-01T18:04:30.502Z,17.80
2017-09-01T18:06:57.996Z,17.70
2017-09-01T18:09:25.540Z,17.70
2017-09-01T18:11:53.041Z,17.60
2017-09-01T18:14:20.521Z,17.50
2017-09-01T18:16:48.107Z,17.40
2017-09-01T18:19:15.856Z,17.40
2017-09-01T18:21:43.392Z,17.30
2017-09-01T18:24:10.851Z,17.30
2017-09-01T18:26:38.409Z,17.20
2017-09-01T18:29:05.884Z,17.10
2017-09-01T18:31:33.572Z,17.10
2017-09-01T18:34:01.108Z,17.10
2017-09-01T18:36:29.349Z,16.90
2017-09-01T18:38:56.839Z,16.90
2017-09-01T18:41:24.292Z,16.90
2017-09-01T18:43:51.752Z,16.80
2017-09-01T18:46:19.452Z,16.80
2017-09-01T18:48:46.988Z,16.80
2017-09-01T18:51:14.529Z,16.70
2017-09-01T18:53:42.023Z,16.70
2017-09-01T18:56:09.552Z,16.60
2017-09-01T18:58:37.061Z,16.50
2017-09-01T19:01:04.720Z,16.50
2017-09-01T19:03:32.252Z,16.50
2017-09-01T19:05:59.716Z,16.50
2017-09-01T19:08:27.201Z,16.40
2017-09-01T19:10:54.711Z,16.40
2017-09-01T19:13:22.257Z,16.40
2017-09-01T19:15:50.008Z,16.40
2017-09-01T19:18:17.527Z,16.40
2017-09-01T19:20:45.756Z,16.30
2017-09-01T19:23:13.327Z,16.30
2017-09-01T19:25:40.837Z,16.30
2017-09-01T19:28:08.319Z,16.30
2017-09-01T19:30:35.882Z,16.20
2017-09-01T19:33:03.380Z,16.10
2017-09-01T19:35:30.940Z,16.20
2017-09-01T19:37:58.480Z,16.20
2017-09-01T19:40:26.029Z,16.20
2017-09-01T19:42:53.572Z,16.20
2017-09-01T19:45:21.080Z,16.20
2017-09-01T19:47:48.560Z,16.20
2017-09-01T19:50:16.060Z,16.20
2017-09-01T19:52:43.524Z,16.20
2017-09-01T19:55:11.031Z,16.20
2017-09-01T19:57:38.491Z,16.20
2017-09-01T20:00:06.003Z,16.20
2017-09-01T20:02:33.639Z,16.30
2017-09-01T20:05:01.103Z,16.20
2017-09-01T20:07:28.573Z,16.20
2017-09-01T20:09:56.219Z,16.30
2017-09-01T20:12:23.692Z,16.30
2017-09-01T20:14:51.971Z,16.30
2017-09-01T20:17:19.484Z,16.20
2017-09-01T20:19:47.736Z,16.10
2017-09-01T20:22:15.200Z,16.10
2017-09-01T20:24:42.748Z,16.10
2017-09-01T20:27:10.257Z,16.10
2017-09-01T20:29:37.716Z,16.10
2017-09-01T20:32:05.290Z,16.10
2017-09-01T20:34:32.797Z,16.10
2017-09-01T20:37:01.020Z,16.10
2017-09-01T20:39:28.688Z,16.10
2017-09-01T20:41:56.231Z,16.10
2017-09-01T20:44:23.788Z,16.00
2017-09-01T20:46:51.263Z,16.00
2017-09-01T20:49:18.763Z,16.00
2017-09-01T20:51:46.311Z,16.00
2017-09-01T20:54:13.848Z,16.00
2017-09-01T20:56:41.399Z,16.00
2017-09-01T20:59:08.883Z,16.00
2017-09-01T21:01:36.357Z,15.90
2017-09-01T21:04:03.924Z,15.90
2017-09-01T21:06:31.380Z,15.90
2017-09-01T21:08:58.907Z,15.90
2017-09-01T21:11:26.452Z,15.90
2017-09-01T21:13:53.954Z,15.90
2017-09-01T21:16:21.432Z,15.90
2017-09-01T21:18:48.980Z,15.90
2017-09-01T21:21:16.436Z,15.80
2017-09-01T21:23:43.960Z,15.80
2017-09-01T21:26:11.419Z,15.90
2017-09-01T21:28:38.885Z,15.80
2017-09-01T21:31:06.408Z,15.80
2017-09-01T21:33:33.931Z,15.80
2017-09-01T21:36:01.403Z,15.80
2017-09-01T21:38:29.956Z,15.90
2017-09-01T21:40:57.448Z,15.80
2017-09-01T21:43:24.928Z,15.90
2017-09-01T21:45:53.184Z,15.90
2017-09-01T21:48:20.741Z,15.90
2017-09-01T21:50:48.199Z,15.80
2017-09-01T21:53:15.716Z,15.80
2017-09-01T21:55:43.221Z,15.80
2017-09-01T21:58:11.511Z,15.70
2017-09-01T22:00:38.984Z,15.70
2017-09-01T22:03:06.505Z,15.70
2017-09-01T22:05:33.968Z,15.60
2017-09-01T22:08:01.486Z,15.70
2017-09-01T22:10:29.030Z,15.70
2017-09-01T22:12:56.568Z,15.60
2017-09-01T22:15:24.220Z,15.60
2017-09-01T22:17:51.680Z,15.70
2017-09-01T22:20:19.900Z,15.70
2017-09-01T22:22:47.469Z,15.70
2017-09-01T22:25:14.920Z,15.60
2017-09-01T22:27:42.385Z,15.70
2017-09-01T22:30:10.091Z,15.70
2017-09-01T22:32:37.555Z,15.70
2017-09-01T22:35:05.077Z,15.70
2017-09-01T22:37:32.623Z,15.70
2017-09-01T22:40:00.884Z,15.70
2017-09-01T22:42:28.430Z,15.70
2017-09-01T22:44:56.230Z,15.70
2017-09-01T22:47:23.724Z,15.60
2017-09-01T22:49:51.183Z,15.70
2017-09-01T22:52:18.677Z,15.60
2017-09-01T22:54:46.133Z,15.70
2017-09-01T22:57:13.591Z,15.60
2017-09-01T22:59:41.960Z,15.60
2017-09-01T23:02:09.592Z,15.60
2017-09-01T23:04:37.132Z,15.60
2017-09-01T23:07:04.595Z,15.60
2017-09-01T23:09:32.124Z,15.60
2017-09-01T23:11:59.769Z,15.60
2017-09-01T23:14:27.307Z,15.60
2017-09-01T23:16:54.852Z,15.60
2017-09-01T23:19:22.599Z,15.60
2017-09-01T23:21:50.148Z,15.60
2017-09-01T23:24:17.684Z,15.60
2017-09-01T23:26:45.184Z,15.60
2017-09-01T23:29:12.678Z,15.60
2017-09-01T23:31:40.320Z,15.60
2017-09-01T23:34:07.836Z,15.50
2017-09-01T23:36:35.308Z,15.50
2017-09-01T23:39:02.763Z,15.50
2017-09-01T23:41:30.249Z,15.50
2017-09-01T23:43:57.736Z,15.50
2017-09-01T23:46:25.279Z,15.50
2017-09-01T23:48:52.820Z,15.40
2017-09-01T23:51:20.363Z,15.50
2017-09-01T23:53:47.900Z,15.50
2017-09-01T23:56:15.403Z,15.50
2017-09-01T23:58:42.888Z,15.50
